createdAt,value
2019-02-14T00:01:22.686Z,57.27
2019-02-14T00:06:28.152Z,58.53
2019-02-14T00:11:33.638Z,56.03
2019-02-14T00:16:39.083Z,53.10
2019-02-14T00:21:44.527Z,54.77
2019-02-14T00:26:49.976Z,50.23
2019-02-14T00:31:55.461Z,54.30
2019-02-14T00:37:00.983Z,63.00
2019-02-14T00:42:06.423Z,63.57
2019-02-14T00:47:12.211Z,68.57
2019-02-14T00:52:17.638Z,62.87
2019-02-14T00:57:23.082Z,65.57
2019-02-14T01:02:28.550Z,67.17
2019-02-14T01:07:34.010Z,74.93
2019-02-14T01:12:39.458Z,65.23
2019-02-14T01:17:44.902Z,76.33
2019-02-14T01:22:50.344Z,68.17
2019-02-14T01:27:55.903Z,64.13
2019-02-14T01:33:01.856Z,63.10
2019-02-14T01:38:07.707Z,67.93
2019-02-14T01:43:13.545Z,66.30
2019-02-14T01:48:19.012Z,61.47
2019-02-14T01:53:25.492Z,60.77
2019-02-14T01:58:30.943Z,68.30
2019-02-14T02:03:36.390Z,63.17
2019-02-14T02:08:41.858Z,61.47
2019-02-14T02:13:47.386Z,60.00
2019-02-14T02:18:52.896Z,73.60
2019-02-14T02:23:58.420Z,62.63
2019-02-14T02:29:04.302Z,69.63
2019-02-14T02:34:10.195Z,57.73
2019-02-14T02:39:15.666Z,66.83
2019-02-14T02:44:21.129Z,60.77
2019-02-14T02:49:29.267Z,58.07
2019-02-14T02:54:32.420Z,68.37
2019-02-14T02:59:38.270Z,51.03
2019-02-14T03:04:43.738Z,52.47
2019-02-14T03:09:49.604Z,63.40
2019-02-14T03:14:55.119Z,56.73
2019-02-14T03:20:00.616Z,56.40
2019-02-14T03:25:09.661Z,55.47
2019-02-14T03:30:15.583Z,56.20
2019-02-14T03:35:21.036Z,54.97
2019-02-14T03:40:26.559Z,51.87
2019-02-14T03:45:32.004Z,57.73
2019-02-14T03:50:37.626Z,52.17
2019-02-14T03:55:43.494Z,54.93
2019-02-14T04:00:48.939Z,50.43
2019-02-14T04:05:54.493Z,50.70
2019-02-14T04:11:00.706Z,50.90
2019-02-14T04:16:06.512Z,49.00
2019-02-14T04:21:11.996Z,50.60
2019-02-14T04:26:17.450Z,55.90
2019-02-14T04:31:22.893Z,48.40
2019-02-14T04:36:35.915Z,49.13
2019-02-14T04:41:33.846Z,51.70
2019-02-14T04:46:39.321Z,52.37
2019-02-14T04:51:45.758Z,54.60
2019-02-14T04:56:51.254Z,56.53
2019-02-14T05:01:57.043Z,53.97
2019-02-14T05:07:02.519Z,50.13
2019-02-14T05:12:07.959Z,44.60
2019-02-14T05:17:13.431Z,43.77
2019-02-14T05:22:18.890Z,45.27
2019-02-14T05:27:24.326Z,38.73
2019-02-14T05:32:29.775Z,41.93
2019-02-14T05:37:35.240Z,33.67
2019-02-14T05:42:41.022Z,39.20
2019-02-14T05:47:46.831Z,44.30
2019-02-14T05:52:52.284Z,34.57
2019-02-14T05:57:57.738Z,43.17
2019-02-14T06:03:03.286Z,43.20
2019-02-14T06:08:08.753Z,38.57
2019-02-14T06:13:14.191Z,41.97
2019-02-14T06:18:20.644Z,44.47
2019-02-14T06:23:26.101Z,45.53
2019-02-14T06:28:31.914Z,42.40
2019-02-14T06:33:37.434Z,44.13
2019-02-14T06:38:42.874Z,41.77
2019-02-14T06:43:48.594Z,42.13
2019-02-14T06:48:54.079Z,39.73
2019-02-14T06:53:59.643Z,38.20
2019-02-14T06:59:05.751Z,37.33
2019-02-14T07:04:11.474Z,46.77
2019-02-14T07:09:17.115Z,42.17
2019-02-14T07:14:22.611Z,42.00
2019-02-14T07:19:28.152Z,42.47
2019-02-14T07:24:33.963Z,40.80
2019-02-14T07:29:39.664Z,47.40
2019-02-14T07:34:45.122Z,39.07
2019-02-14T07:39:51.477Z,41.50
2019-02-14T07:44:57.755Z,42.97
2019-02-14T07:50:03.297Z,44.53
2019-02-14T07:55:10.146Z,39.70
2019-02-14T08:00:15.661Z,41.27
2019-02-14T08:05:21.324Z,42.60
2019-02-14T08:10:26.864Z,41.40
2019-02-14T08:15:32.363Z,43.53
2019-02-14T08:20:37.886Z,49.70
2019-02-14T08:25:44.639Z,45.07
2019-02-14T08:30:50.369Z,48.93
2019-02-14T08:35:55.875Z,44.40
2019-02-14T08:41:01.771Z,46.13
2019-02-14T08:46:08.615Z,40.83
2019-02-14T08:51:14.439Z,45.60
2019-02-14T08:56:19.862Z,44.07
2019-02-14T09:01:25.323Z,39.10
2019-02-14T09:06:30.802Z,40.90
2019-02-14T09:11:36.247Z,49.70
2019-02-14T09:16:41.687Z,44.23
2019-02-14T09:21:47.124Z,44.10
2019-02-14T09:26:52.571Z,39.53
2019-02-14T09:31:58.479Z,42.37
2019-02-14T09:37:04.228Z,36.03
2019-02-14T09:42:10.444Z,44.13
2019-02-14T09:47:16.244Z,41.73
2019-02-14T09:52:21.704Z,41.47
2019-02-14T09:57:27.340Z,40.13
2019-02-14T10:02:33.484Z,39.07
2019-02-14T10:07:38.922Z,37.67
2019-02-14T10:12:45.092Z,34.50
2019-02-14T10:17:50.615Z,34.57
2019-02-14T10:22:59.039Z,41.10
2019-02-14T10:28:04.578Z,35.17
2019-02-14T10:33:10.016Z,32.00
2019-02-14T10:38:22.065Z,30.00
2019-02-14T10:43:21.062Z,25.53
2019-02-14T10:48:26.916Z,26.73
2019-02-14T10:53:32.721Z,13.43
2019-02-14T10:58:38.535Z,19.93
2019-02-14T11:03:44.445Z,19.07
2019-02-14T11:08:49.896Z,12.47
2019-02-14T11:13:55.557Z,17.93
2019-02-14T11:19:01.227Z,9.97
2019-02-14T11:24:07.527Z,9.63
2019-02-14T11:29:13.001Z,14.17
2019-02-14T11:34:18.503Z,14.83
2019-02-14T11:39:24.834Z,18.03
2019-02-14T11:44:39.771Z,17.47
2019-02-14T11:49:42.126Z,21.47
2019-02-14T11:54:47.775Z,17.37
2019-02-14T11:59:53.435Z,20.67
2019-02-14T12:04:59.019Z,22.47
2019-02-14T12:10:13.174Z,17.03
2019-02-14T12:15:11.027Z,24.27
2019-02-14T12:20:16.883Z,21.67
2019-02-14T12:25:22.755Z,20.93
2019-02-14T12:30:28.533Z,20.00
2019-02-14T12:35:34.211Z,21.17
2019-02-14T12:40:39.774Z,20.83
2019-02-14T12:45:45.652Z,23.87
2019-02-14T12:50:51.221Z,21.20
2019-02-14T12:55:56.744Z,23.70
2019-02-14T13:01:02.646Z,23.60
2019-02-14T13:06:08.525Z,25.33
2019-02-14T13:11:14.443Z,24.43
2019-02-14T13:16:19.921Z,21.13
2019-02-14T13:21:31.792Z,26.90
2019-02-14T13:26:37.300Z,22.83
2019-02-14T13:31:42.746Z,26.67
2019-02-14T13:36:48.255Z,28.63
2019-02-14T13:41:53.713Z,24.60
2019-02-14T13:46:59.200Z,28.30
2019-02-14T13:52:05.017Z,24.90
2019-02-14T13:57:10.569Z,26.23
2019-02-14T14:02:16.151Z,24.10
2019-02-14T14:07:22.089Z,24.37
2019-02-14T14:12:27.662Z,22.77
2019-02-14T14:17:33.152Z,26.73
2019-02-14T14:22:38.712Z,22.67
2019-02-14T14:27:44.210Z,23.83
2019-02-14T14:32:49.723Z,25.10
2019-02-14T14:37:55.252Z,26.83
2019-02-14T14:43:05.163Z,25.33
2019-02-14T14:48:19.236Z,23.53
2019-02-14T14:53:17.878Z,23.67
2019-02-14T14:58:23.354Z,23.43
2019-02-14T15:03:28.839Z,27.33
2019-02-14T15:08:34.303Z,31.07
2019-02-14T15:13:39.798Z,29.37
2019-02-14T15:18:45.279Z,28.83
2019-02-14T15:23:50.720Z,25.13
2019-02-14T15:28:56.547Z,27.03
2019-02-14T15:34:02.161Z,30.87
2019-02-14T15:39:07.918Z,28.60
2019-02-14T15:44:13.388Z,26.73
2019-02-14T15:49:20.595Z,28.27
2019-02-14T15:54:26.655Z,25.87
2019-02-14T15:59:33.351Z,29.87
2019-02-14T16:04:38.820Z,27.60
2019-02-14T16:09:44.369Z,29.20
2019-02-14T16:14:50.167Z,30.33
2019-02-14T16:19:57.545Z,31.20
2019-02-14T16:25:02.601Z,30.80
2019-02-14T16:30:09.443Z,25.70
2019-02-14T16:35:13.787Z,25.67
2019-02-14T16:40:27.953Z,27.50
2019-02-14T16:45:29.234Z,22.57
2019-02-14T16:50:34.731Z,26.83
2019-02-14T16:55:40.348Z,27.67
2019-02-14T17:00:45.906Z,17.37
2019-02-14T17:05:51.432Z,17.13
2019-02-14T17:10:56.967Z,16.53
2019-02-14T17:16:02.553Z,25.50
2019-02-14T17:21:08.471Z,17.37
2019-02-14T17:26:13.962Z,16.53
2019-02-14T17:31:19.498Z,21.97
2019-02-14T17:36:24.999Z,17.60
2019-02-14T17:41:30.556Z,24.10
2019-02-14T17:46:36.125Z,16.30
2019-02-14T17:51:41.739Z,24.37
2019-02-14T17:56:47.575Z,23.23
2019-02-14T18:01:53.228Z,20.20
2019-02-14T18:06:58.788Z,21.60
2019-02-14T18:12:04.606Z,18.50
2019-02-14T18:17:10.318Z,20.00
2019-02-14T18:22:15.908Z,17.47
2019-02-14T18:27:21.706Z,14.27
2019-02-14T18:32:27.572Z,20.40
2019-02-14T18:37:33.016Z,21.57
2019-02-14T18:42:39.955Z,25.00
2019-02-14T18:47:45.390Z,17.80
2019-02-14T18:52:51.678Z,19.27
2019-02-14T18:57:57.146Z,24.33
2019-02-14T19:03:03.643Z,20.73
2019-02-14T19:08:09.090Z,16.17
2019-02-14T19:13:14.908Z,23.33
2019-02-14T19:18:20.437Z,23.73
2019-02-14T19:23:25.904Z,18.43
2019-02-14T19:28:31.822Z,22.43
2019-02-14T19:33:37.654Z,22.63
2019-02-14T19:38:43.288Z,30.43
2019-02-14T19:43:48.750Z,22.20
2019-02-14T19:48:54.190Z,22.17
2019-02-14T19:54:00.131Z,26.50
2019-02-14T19:59:06.348Z,20.03
2019-02-14T20:04:11.817Z,24.37
2019-02-14T20:09:17.653Z,55.90
2019-02-14T20:14:24.324Z,48.83
2019-02-14T20:19:29.783Z,46.20
2019-02-14T20:24:35.239Z,39.03
2019-02-14T20:29:40.709Z,39.93
2019-02-14T20:34:46.215Z,33.30
2019-02-14T20:39:52.018Z,30.70
2019-02-14T20:50:17.622Z,30.97
2019-02-14T20:55:23.155Z,29.10
2019-02-14T21:00:29.442Z,29.63
2019-02-14T21:05:34.905Z,28.27
2019-02-14T21:10:40.429Z,29.57
2019-02-14T21:15:46.015Z,33.37
2019-02-14T21:20:51.578Z,27.80
2019-02-14T21:25:57.815Z,23.63
2019-02-14T21:31:03.479Z,36.40
2019-02-14T21:36:09.258Z,27.43
2019-02-14T21:41:15.226Z,30.37
2019-02-14T21:46:21.387Z,32.40
2019-02-14T21:51:26.853Z,30.80
2019-02-14T21:56:32.331Z,28.87
2019-02-14T22:01:38.420Z,25.33
2019-02-14T22:06:43.967Z,21.83
2019-02-14T22:11:49.815Z,27.60
2019-02-14T22:16:55.408Z,28.17
2019-02-14T22:22:01.546Z,25.37
2019-02-14T22:27:07.016Z,27.63
2019-02-14T22:32:12.847Z,29.23
2019-02-14T22:37:18.654Z,22.73
2019-02-14T22:42:24.173Z,25.03
2019-02-14T22:47:29.977Z,26.33
2019-02-14T22:52:35.890Z,32.27
2019-02-14T22:57:41.679Z,31.80
2019-02-14T23:02:47.159Z,29.47
2019-02-14T23:07:52.943Z,25.67
2019-02-14T23:12:58.427Z,29.27
2019-02-14T23:18:03.895Z,28.60
2019-02-14T23:23:09.354Z,22.70
2019-02-14T23:28:14.799Z,23.63
2019-02-14T23:33:20.362Z,25.07
2019-02-14T23:38:25.933Z,28.73
2019-02-14T23:43:31.694Z,27.43
2019-02-14T23:48:37.232Z,24.00
2019-02-14T23:53:42.737Z,25.97
2019-02-14T23:58:48.275Z,26.60
